Drummond Island, MI (49726)

11:08 PM EDT on August 31, 2015 (GMT -0400)
Potagannissing Bay Front | | Change Station
CLOSE
Current Station
Personal Weather Station
Location: Drummond Island, MI
Elevation: 587 ft
Nearby Weather Stations

Elev 587 ft 46.06 °N, 83.67 °W | Updated 9 seconds ago

Fog
Fog
61.9 °F
Feels Like 61.9 °F
N
2.0
Wind Variable Wind from South
Gusts 7.0 mph

Today
High -- | Low -- °F
--% Chance of Precip.
Yesterday
High -- | Low -- °F
Precip. -- in
6:54 AM 8:15 PM
Waning Gibbous, 92% visible
Pressure 30.02 in
Visibility 0.2 miles
Clouds Overcast 200 ft
Dew Point 61 °F
Humidity 98%
Rainfall in
Snow Depth Not available.
UV 0 out of 12
Pollen 10.50 out of 12
Air Quality Not available.
Flu Activity Not available.
METAR KDRM 010255Z AUTO 16003KT 1/4SM FG OVC002 17/17 A3002 RMK AO2 T01650165
Pressure 30.02 in
Visibility 0.2 miles
Clouds Overcast 200 ft
Dew Point 61 °F
Humidity 98%
Rainfall in
Snow Depth Not available.
UV 0 out of 12
Pollen 10.50 out of 12
Air Quality Not available.
Flu Activity Not available.
METAR KDRM 010255Z AUTO 16003KT 1/4SM FG OVC002 17/17 A3002 RMK AO2 T01650165
Nowcast | as of 11:00 PM EDT on August 31, 2015

At 12 am...partly cloudy. Areas of fog. Temperature 65. South winds 5 mph. At 2 am...cloudy. Areas of fog. Temperature 64. Light winds. At 4 am...cloudy. Areas of fog. Temperature 63. Light winds. At 6 am...cloudy. Areas of fog. Temperature 63. Light winds.

×

10-Day Weather Forecast

×

Almanac

Astronomy

Aug. 31, 2015 Rise Set
Actual Time
Civil Twilight
Nautical Twilight
Astronomical Twilight
Moon
Length of Visible Light
Length of Day
Tomorrow will be .
, % of the Moon is Illuminated

Today's Extremes

State Highs State Lows

Community

WunderPhotos

Upload Photos

1,851,463 photos uploaded!

WunderBlogs® & News

Nearby

Air Quality

  Air Quality AQ Index Pollutant
Not available.

Snow Depth

Station Depth Elevation

Earthquake Activity

City Distance Mag. Time & Date
Minimum magnitude displayed is 2.5.

Coastal Water Temperatures

Place Temperature

Stations

Nearby Weather Stations

Station Location Temp. Windchill Dew Point Humidity Wind Precip. Elev Updated Type